< < Back
Terminal Aerodrome Forecast


Current Version              Previous Versions:   1  2  3  4  5  6  7  8  9  

Terminal Aerodrome Forecast

925
FTUS42 KFFC 291355 AAA
TAFCSG
TAF AMD
KCSG 291355Z 2914/3012 33006KT P6SM SCT050
      TEMPO 2920/2923 VRB10G20KT 6SM -TSRA BKN040CB
     FM300100 02004KT P6SM SCT100 BKN250=

Latest METAR

300
SAUS70 KWBC 291600 RRA
MTRCSG
METAR KCSG 291551Z 00000KT 10SM CLR 33/22 A3000 RMK AO2 SLP154
T03330217


USA.gov is the U.S. government's official web portal to all federal, state and local government web resources and services.